Apj Shirin — 3EVS6 — position and weather

sailwx.info

Track history (hours):
 
Tides and Currents Weather Stations Pressure Air Temp Water Temp Dewpoint Dewpoint Depression Visibility Wind Speed Wind Dir Waves Ship Positions

Apj Shirin

Last reported at 2015-Aug-17 18:26 UTC. Time now 2015-Sep-03 02:38 UTC.
Position N 03°35' E 100°08'.
Warning: this ship's position is 16 days out of date.

Length 189 m; draft 11.1 m.

Type: Cargo ship. MMSI: 373223000.

Date/timePositionNaut miles runAvg speedWind from/ knotsBaromVisibWave heightAir tempDewpointWater temp
2015-Aug-17 18:26N 03°35' E 100°08'1914.1
2015-Aug-17 17:06N 03°23' E 100°23'3815.1
2015-Aug-17 14:33N 02°58' E 100°51'2613.2
2015-Aug-17 12:33N 02°43' E 101°13'17413.3
2015-Aug-16 23:25N 01°10' E 103°41'8 9.8
2015-Aug-16 22:33N 01°11' E 103°49'9 9.2
2015-Aug-16 21:33N 01°16' E 103°57'1 0.1
2015-Aug-16 17:26N 01°17' E 103°57'0 0.0
2015-Aug-16 11:20N 01°17' E 103°57'0 0.0
2015-Aug-16 10:32N 01°17' E 103°57'0 0.0
2015-Aug-16 09:20N 01°17' E 103°57'2 1.1
2015-Aug-16 07:33N 01°15' E 103°58'  
Track history (hours):
 
Tides and Currents Weather Stations Pressure Air Temp Water Temp Dewpoint Dewpoint Depression Visibility Wind Speed Wind Dir Waves Ship Positions

Apj Shirin

Last reported at 2015-Aug-17 18:26 UTC. Time now 2015-Sep-03 02:38 UTC.
Position N 03°35' E 100°08'.
Warning: this ship's position is 16 days out of date.

Length 189 m; draft 11.1 m.

Type: Cargo ship. MMSI: 373223000.

Date/timePositionNaut miles runAvg speedWind from/ knotsBaromVisibWave heightAir tempDewpointWater temp
2015-Aug-17 18:26N 03°35' E 100°08'1914.1
2015-Aug-17 17:06N 03°23' E 100°23'3815.1
2015-Aug-17 14:33N 02°58' E 100°51'2613.2
2015-Aug-17 12:33N 02°43' E 101°13'17413.3
2015-Aug-16 23:25N 01°10' E 103°41'8 9.8
2015-Aug-16 22:33N 01°11' E 103°49'9 9.2
2015-Aug-16 21:33N 01°16' E 103°57'1 0.1
2015-Aug-16 17:26N 01°17' E 103°57'0 0.0
2015-Aug-16 11:20N 01°17' E 103°57'0 0.0
2015-Aug-16 10:32N 01°17' E 103°57'0 0.0
2015-Aug-16 09:20N 01°17' E 103°57'2 1.1
2015-Aug-16 07:33N 01°15' E 103°58'  

Dump ship's entire track history